Time;durP1;ratioP1;P1;durP2;ratioP2;P2;SDS_P1;SDS_P2;PMS_P1;PMS_P2;Temp;Humidity;BMP_temperature;BMP_pressure;BME280_temperature;BME280_humidity;BME280_pressure;Samples;Min_cycle;Max_cycle;Signal;HPM_P1;HPM_P2
2021/03/29 00:00:48;;;;;;;30.25;21.08;;;;;;;4.37;62.73;101717.78;114457;1196;103367;-80
2021/03/29 00:03:15;;;;;;;26.10;17.47;;;;;;;4.39;62.67;101709.92;114500;1195;103203;-81
2021/03/29 00:05:43;;;;;;;33.23;19.35;;;;;;;4.43;61.97;101702.09;114270;1196;103002;-80
2021/03/29 00:08:17;;;;;;;25.73;17.73;;;;;;;4.42;62.32;101699.42;114571;1194;103126;-79
2021/03/29 00:10:48;;;;;;;26.33;17.75;;;;;;;4.37;62.46;101698.44;114353;1196;103264;-83
2021/03/29 00:13:15;;;;;;;27.43;18.15;;;;;;;4.37;61.92;101699.31;114374;1196;103099;-80
2021/03/29 00:15:46;;;;;;;24.30;17.90;;;;;;;4.37;62.65;101701.08;114390;1195;103133;-81
2021/03/29 00:18:14;;;;;;;27.53;19.93;;;;;;;4.38;62.72;101702.86;114336;1196;103030;-81
2021/03/29 00:20:45;;;;;;;26.80;19.27;;;;;;;4.38;62.36;101702.86;114364;1196;103281;-80
2021/03/29 00:23:11;;;;;;;23.80;14.80;;;;;;;4.39;62.46;101699.38;114196;1196;103113;-81
2021/03/29 00:25:38;;;;;;;26.60;18.90;;;;;;;4.39;63.18;101699.38;114383;1196;103549;-80
2021/03/29 00:28:05;;;;;;;24.60;18.60;;;;;;;4.39;62.52;101692.34;114301;1196;103991;-85
2021/03/29 00:30:35;;;;;;;26.70;17.83;;;;;;;4.41;62.87;101693.27;114316;1196;103171;-81
2021/03/29 00:33:05;;;;;;;24.75;17.68;;;;;;;4.43;62.35;101690.66;114367;1196;103190;-80
2021/03/29 00:35:34;;;;;;;21.47;17.43;;;;;;;4.48;62.88;101692.52;114603;1195;103361;-81
2021/03/29 00:38:04;;;;;;;25.80;18.20;;;;;;;4.48;62.68;101684.61;114367;1194;103123;-80
2021/03/29 00:40:32;;;;;;;30.00;19.20;;;;;;;4.46;62.83;101690.70;114332;1195;103939;-80
2021/03/29 00:43:06;;;;;;;23.77;18.37;;;;;;;4.51;62.91;101689.93;114291;1196;103268;-81
2021/03/29 00:45:33;;;;;;;27.17;18.97;;;;;;;4.54;61.98;101693.50;114454;1196;103079;-79
2021/03/29 00:48:02;;;;;;;35.00;22.33;;;;;;;4.61;61.83;101698.03;114470;1196;103267;-79
2021/03/29 00:50:48;;;;;;;32.93;18.07;;;;;;;4.69;62.38;101704.33;114562;1196;103126;-83
2021/03/29 00:53:16;;;;;;;21.50;17.30;;;;;;;4.72;61.68;101698.22;114527;1196;103019;-81
2021/03/29 00:55:46;;;;;;;31.50;17.20;;;;;;;4.78;61.84;101709.78;114190;1196;103901;-81
2021/03/29 00:58:20;;;;;;;22.63;17.00;;;;;;;4.84;61.45;101703.75;114270;1196;103146;-82
2021/03/29 01:00:57;;;;;;;24.48;17.98;;;;;;;4.92;61.33;101704.78;114312;1196;103261;-81
2021/03/29 01:03:28;;;;;;;28.53;16.58;;;;;;;4.91;61.67;101700.35;114485;1196;103101;-81
2021/03/29 01:06:18;;;;;;;22.98;18.60;;;;;;;4.95;61.16;101701.30;114391;1196;103133;-80
2021/03/29 01:08:53;;;;;;;23.10;16.27;;;;;;;4.95;61.57;101704.82;114648;1196;103156;-80
2021/03/29 01:11:26;;;;;;;19.90;16.15;;;;;;;5.02;61.40;101706.73;114622;1196;103258;-79
2021/03/29 01:14:11;;;;;;;25.90;17.70;;;;;;;5.09;61.65;101697.16;114583;1196;103130;-83
2021/03/29 01:16:43;;;;;;;23.70;17.70;;;;;;;5.12;61.20;101696.33;114335;1196;103184;-79
2021/03/29 01:19:15;;;;;;;20.20;15.20;;;;;;;5.14;61.59;101695.45;114430;1196;103967;-81
2021/03/29 01:22:02;;;;;;;23.70;17.30;;;;;;;5.07;61.67;101695.35;114459;1196;103364;-80
2021/03/29 01:25:06;;;;;;;24.80;15.27;;;;;;;5.08;61.14;101705.03;114265;1196;103159;-81
2021/03/29 01:27:42;;;;;;;18.90;14.77;;;;;;;5.10;62.36;101695.40;114240;1195;103669;-80
2021/03/29 01:30:11;;;;;;;23.65;17.48;;;;;;;5.06;61.93;101702.37;114367;1195;103268;-82
2021/03/29 01:32:40;;;;;;;16.95;14.88;;;;;;;4.99;61.12;101697.85;114238;1196;103812;-82
2021/03/29 01:35:12;;;;;;;30.20;18.20;;;;;;;4.99;61.45;101700.49;114524;1196;103031;-83
2021/03/29 01:37:40;;;;;;;21.23;16.45;;;;;;;4.93;61.44;101701.28;114194;1196;103127;-84
2021/03/29 01:40:08;;;;;;;20.85;16.38;;;;;;;4.85;61.07;101698.50;114485;1196;103103;-88
2021/03/29 01:42:36;;;;;;;18.88;14.38;;;;;;;4.85;61.82;101695.86;114342;1196;103316;-82
2021/03/29 01:45:05;;;;;;;19.23;15.33;;;;;;;4.90;62.18;101692.41;114374;1196;104126;-80
2021/03/29 01:47:31;;;;;;;20.73;14.45;;;;;;;4.93;61.83;101696.00;114500;1196;103494;-83
2021/03/29 01:49:58;;;;;;;19.50;15.00;;;;;;;4.94;61.64;101694.23;114339;1196;103622;-81
2021/03/29 01:52:25;;;;;;;18.63;14.17;;;;;;;4.95;61.55;101694.27;114458;1196;103079;-80
2021/03/29 01:54:52;;;;;;;19.90;15.30;;;;;;;4.93;61.75;101689.81;114590;1196;103104;-85
2021/03/29 01:57:19;;;;;;;19.48;14.46;;;;;;;4.90;61.48;101695.05;114522;1196;103281;-81
2021/03/29 01:59:46;;;;;;;22.60;16.33;;;;;;;4.89;61.65;101698.55;114574;1196;103116;-79
2021/03/29 02:02:12;;;;;;;15.53;13.03;;;;;;;4.89;61.61;101698.55;114549;1196;103316;-80
2021/03/29 02:04:40;;;;;;;20.88;15.43;;;;;;;4.90;61.27;101701.20;114520;1196;103178;-83
2021/03/29 02:07:07;;;;;;;21.08;15.23;;;;;;;4.88;61.72;101697.67;114394;1196;103117;-81
2021/03/29 02:09:35;;;;;;;18.00;15.40;;;;;;;4.89;61.23;101703.83;114197;1196;103133;-81
2021/03/29 02:12:12;;;;;;;20.70;16.50;;;;;;;4.88;62.15;101702.03;114411;1195;103213;-81
2021/03/29 02:14:39;;;;;;;21.10;16.35;;;;;;;4.88;61.70;101695.03;114353;1195;103101;-80
2021/03/29 02:17:08;;;;;;;20.47;15.23;;;;;;;4.90;61.40;101700.33;114427;1196;103233;-81
2021/03/29 02:19:36;;;;;;;23.15;15.10;;;;;;;4.94;61.64;101700.39;114309;1196;103175;-80
2021/03/29 02:22:04;;;;;;;20.55;15.30;;;;;;;5.04;61.87;101704.11;114235;1196;103329;-81
2021/03/29 02:24:46;;;;;;;24.63;16.83;;;;;;;5.02;61.75;101692.61;114438;1196;103520;-79
2021/03/29 02:27:13;;;;;;;25.90;16.30;;;;;;;5.02;61.68;101689.98;114328;1196;103104;-81
2021/03/29 02:29:40;;;;;;;22.40;16.40;;;;;;;4.98;61.45;101688.15;114377;1196;103273;-80
2021/03/29 02:32:08;;;;;;;28.53;15.87;;;;;;;4.96;61.92;101685.48;114230;1196;103226;-81
2021/03/29 02:34:50;;;;;;;24.80;16.30;;;;;;;4.95;61.95;101690.75;114181;1196;103113;-81
2021/03/29 02:37:17;;;;;;;18.80;14.80;;;;;;;4.93;61.61;101685.44;114505;1196;103831;-80
2021/03/29 02:39:44;;;;;;;20.50;16.37;;;;;;;5.02;61.26;101687.34;114273;1196;103363;-81
2021/03/29 02:42:10;;;;;;;27.30;17.23;;;;;;;5.10;61.27;101690.99;114351;1196;103156;-83
2021/03/29 02:44:38;;;;;;;24.17;15.83;;;;;;;5.21;61.26;101693.81;114481;1196;103127;-81
2021/03/29 02:47:05;;;;;;;19.50;14.83;;;;;;;5.20;61.66;101697.34;114442;1196;103101;-81
2021/03/29 02:49:32;;;;;;;25.85;17.75;;;;;;;5.15;61.28;101699.01;114497;1196;103101;-83
2021/03/29 02:52:15;;;;;;;20.73;15.17;;;;;;;5.16;61.79;101696.39;114504;1196;103373;-81
2021/03/29 02:54:42;;;;;;;24.40;17.00;;;;;;;5.09;61.83;101697.16;114556;1195;103556;-81
2021/03/29 02:57:09;;;;;;;20.15;15.68;;;;;;;5.10;61.87;101698.04;114637;1196;103104;-82
2021/03/29 02:59:38;;;;;;;25.53;17.30;;;;;;;5.19;62.01;101696.43;114465;1196;103193;-83
2021/03/29 03:02:07;;;;;;;22.98;16.70;;;;;;;5.24;61.53;101693.88;114404;1196;103197;-82
2021/03/29 03:04:35;;;;;;;23.97;16.73;;;;;;;5.17;62.22;101684.06;114509;1196;103421;-81
2021/03/29 03:07:02;;;;;;;29.30;18.48;;;;;;;5.12;61.87;101683.13;114544;1196;103187;-81
2021/03/29 03:09:29;;;;;;;23.60;18.67;;;;;;;5.10;62.87;101688.35;114622;1195;103223;-82
2021/03/29 03:11:56;;;;;;;23.45;16.90;;;;;;;5.10;62.18;101690.12;114504;1196;103184;-81
2021/03/29 03:14:39;;;;;;;25.83;19.90;;;;;;;5.11;63.16;101691.91;114317;1199;102996;-81
2021/03/29 03:17:06;;;;;;;23.77;18.13;;;;;;;5.12;62.51;101681.36;114352;1199;104840;-80
2021/03/29 03:19:34;;;;;;;22.50;16.88;;;;;;;5.21;63.09;101683.25;114218;1199;103203;-80
2021/03/29 03:22:01;;;;;;;29.50;18.55;;;;;;;5.19;62.90;101682.34;114292;1199;103351;-79
2021/03/29 03:24:34;;;;;;;23.05;16.80;;;;;;;5.16;62.24;101674.38;114318;1199;103271;-80
2021/03/29 03:27:06;;;;;;;22.20;16.53;;;;;;;5.19;62.26;101683.23;114279;1199;103700;-80
2021/03/29 03:29:33;;;;;;;23.80;17.43;;;;;;;5.25;62.74;101681.55;114162;1200;103526;-81
2021/03/29 03:32:16;;;;;;;24.28;16.98;;;;;;;5.24;62.33;101685.05;114023;1200;103904;-89
2021/03/29 03:34:43;;;;;;;18.10;16.00;;;;;;;5.25;62.76;101685.11;113821;1200;103232;-81
2021/03/29 03:37:17;;;;;;;18.20;14.73;;;;;;;5.28;62.20;101682.50;114102;1200;103484;-81
2021/03/29 03:40:00;;;;;;;20.08;16.75;;;;;;;5.28;61.79;101684.27;113741;1202;103482;-87
2021/03/29 03:42:26;;;;;;;29.60;16.77;;;;;;;5.23;62.19;101681.53;113757;1203;103210;-81
2021/03/29 03:44:54;;;;;;;19.43;14.87;;;;;;;5.19;61.91;101679.70;114096;1199;104303;-81
2021/03/29 03:47:21;;;;;;;22.68;16.03;;;;;;;5.18;62.53;101693.77;114270;1199;103031;-81
2021/03/29 03:49:48;;;;;;;18.50;15.43;;;;;;;5.20;62.49;101692.06;114262;1199;103102;-82
2021/03/29 03:52:15;;;;;;;26.50;16.98;;;;;;;5.20;63.13;101705.27;114275;1196;103258;-79
2021/03/29 03:54:42;;;;;;;20.20;15.33;;;;;;;5.23;62.92;101696.50;114473;1196;103236;-81
2021/03/29 03:57:09;;;;;;;18.23;16.30;;;;;;;5.23;64.00;101688.58;114282;1195;103203;-82
2021/03/29 03:59:36;;;;;;;25.63;16.93;;;;;;;5.25;63.14;101705.33;114382;1196;103223;-80
2021/03/29 04:02:07;;;;;;;20.98;16.10;;;;;;;5.29;63.77;101692.21;114402;1195;103171;-83
2021/03/29 04:04:48;;;;;;;16.65;13.90;;;;;;;5.31;64.20;101702.80;114396;1195;103101;-82
2021/03/29 04:07:16;;;;;;;18.85;14.25;;;;;;;5.29;64.59;101692.21;114483;1196;103220;-84
2021/03/29 04:12:24;;;;;;;20.50;16.50;;;;;;;5.29;65.27;101694.85;113946;1199;103210;-81
2021/03/29 04:14:51;;;;;;;19.17;14.37;;;;;;;5.37;65.41;101697.59;114288;1200;103296;-81
2021/03/29 04:17:18;;;;;;;14.70;12.55;;;;;;;5.40;65.74;101699.39;114234;1200;103124;-82
2021/03/29 04:19:59;;;;;;;21.18;16.43;;;;;;;5.40;65.79;101699.39;114048;1199;104504;-82
2021/03/29 04:22:26;;;;;;;21.40;16.80;;;;;;;5.38;65.73;101699.38;114172;1199;103449;-81
2021/03/29 04:24:53;;;;;;;17.33;14.90;;;;;;;5.37;65.57;101708.16;114182;1200;103177;-80
2021/03/29 04:27:20;;;;;;;22.78;14.33;;;;;;;5.44;65.92;101723.27;114208;1199;103340;-81
2021/03/29 04:29:46;;;;;;;22.77;18.40;;;;;;;5.41;66.47;101717.03;114322;1199;104623;-81
2021/03/29 04:32:13;;;;;;;23.75;17.50;;;;;;;5.39;66.93;101714.38;114232;1200;104154;-81
2021/03/29 04:34:39;;;;;;;28.07;17.90;;;;;;;5.39;67.00;101711.73;114134;1199;103299;-82
2021/03/29 04:37:06;;;;;;;18.43;15.73;;;;;;;5.37;66.99;101708.16;114139;1199;103309;-80
2021/03/29 04:39:33;;;;;;;22.40;14.43;;;;;;;5.39;67.50;101718.78;114179;1200;103316;-81
2021/03/29 04:41:59;;;;;;;19.70;15.75;;;;;;;5.44;67.10;101715.34;114105;1199;103315;-84
2021/03/29 04:44:26;;;;;;;17.75;15.03;;;;;;;5.44;67.41;101711.78;114185;1198;103095;-81
2021/03/29 04:46:53;;;;;;;21.03;15.83;;;;;;;5.38;67.69;101707.30;114235;1199;103244;-83
2021/03/29 04:49:19;;;;;;;22.80;16.37;;;;;;;5.37;67.53;101705.52;114125;1196;103287;-83
2021/03/29 04:52:00;;;;;;;22.50;15.95;;;;;;;5.40;67.57;101710.88;114094;1199;103296;-82
2021/03/29 04:54:28;;;;;;;21.43;16.37;;;;;;;5.41;67.72;101706.47;114146;1199;103226;-80
2021/03/29 04:56:54;;;;;;;23.83;16.17;;;;;;;5.42;68.00;101708.25;113643;1199;103306;-81
2021/03/29 04:59:22;;;;;;;20.47;15.33;;;;;;;5.46;67.86;101710.07;113567;1200;103257;-81
2021/03/29 05:02:03;;;;;;;25.60;19.00;;;;;;;5.45;68.08;101703.91;113652;1200;103296;-81
2021/03/29 05:04:30;;;;;;;25.67;17.93;;;;;;;5.49;67.58;101699.55;113775;1198;103296;-80
2021/03/29 05:07:00;;;;;;;19.73;16.03;;;;;;;5.51;67.82;101700.47;113697;1198;103219;-81
2021/03/29 05:09:26;;;;;;;20.30;13.83;;;;;;;5.54;68.10;101695.22;114032;1199;103261;-81
2021/03/29 05:11:54;;;;;;;15.23;13.63;;;;;;;5.48;68.51;101692.51;114001;1199;103283;-80
2021/03/29 05:14:21;;;;;;;21.57;15.33;;;;;;;5.45;68.21;101695.08;114129;1199;103225;-82
2021/03/29 05:16:48;;;;;;;25.63;16.13;;;;;;;5.51;68.48;101687.26;114139;1198;103038;-81
2021/03/29 05:19:14;;;;;;;23.83;17.87;;;;;;;5.56;68.89;101682.03;113891;1200;103200;-80
2021/03/29 05:21:41;;;;;;;21.67;17.90;;;;;;;5.60;68.91;101686.48;113730;1200;103609;-81
2021/03/29 05:24:08;;;;;;;25.70;18.83;;;;;;;5.64;68.72;101689.22;113569;1199;104038;-80
2021/03/29 05:26:35;;;;;;;23.08;17.75;;;;;;;5.65;68.67;101684.80;113535;1199;103335;-81
2021/03/29 05:29:02;;;;;;;23.55;17.83;;;;;;;5.81;68.52;101686.83;113472;1196;103232;-84
2021/03/29 05:31:29;;;;;;;19.83;17.37;;;;;;;5.93;68.16;101690.49;113746;1196;103146;-82
2021/03/29 05:33:56;;;;;;;19.43;14.40;;;;;;;5.89;68.07;101676.36;114164;1196;103194;-80
2021/03/29 05:36:22;;;;;;;28.05;17.48;;;;;;;5.92;68.26;101675.48;113875;1195;103097;-82
2021/03/29 05:38:49;;;;;;;22.53;15.80;;;;;;;5.92;68.66;101689.62;114177;1195;103123;-81
2021/03/29 05:41:16;;;;;;;19.83;15.40;;;;;;;5.94;68.44;101677.28;115040;1196;103312;-85
2021/03/29 05:43:43;;;;;;;21.17;15.80;;;;;;;6.02;68.33;101682.72;115104;1196;103295;-84
2021/03/29 05:46:12;;;;;;;25.20;16.67;;;;;;;6.08;68.43;101692.48;115604;1195;103150;-81
2021/03/29 05:48:38;;;;;;;21.85;16.75;;;;;;;6.10;68.62;101699.56;115522;1195;103127;-80
2021/03/29 05:51:07;;;;;;;23.33;16.37;;;;;;;6.11;68.26;101693.42;115448;1196;103123;-83
2021/03/29 05:53:48;;;;;;;24.77;20.37;;;;;;;6.12;68.60;101697.84;115187;1196;103862;-81
2021/03/29 05:56:15;;;;;;;22.50;18.90;;;;;;;6.17;68.60;101696.16;114405;1196;103447;-80
2021/03/29 05:58:56;;;;;;;26.20;18.30;;;;;;;6.24;68.72;101696.20;114515;1196;104660;-85
2021/03/29 06:01:23;;;;;;;23.55;16.20;;;;;;;6.34;68.00;101698.11;114112;1196;103309;-79
2021/03/29 06:03:51;;;;;;;22.97;16.63;;;;;;;6.38;68.36;101701.69;114257;1196;103210;-79
2021/03/29 06:06:20;;;;;;;24.48;16.83;;;;;;;6.43;68.47;101698.22;114325;1196;103182;-79
2021/03/29 06:09:02;;;;;;;17.03;14.23;;;;;;;6.50;68.40;101701.83;114023;1196;103207;-81
2021/03/29 06:11:36;;;;;;;23.88;16.45;;;;;;;6.53;68.73;101702.75;114089;1196;103130;-81
2021/03/29 06:14:21;;;;;;;23.57;16.97;;;;;;;6.58;68.37;101701.91;114101;1196;103485;-80
2021/03/29 06:16:52;;;;;;;22.75;17.40;;;;;;;6.67;68.59;101710.84;114133;1196;103293;-80
2021/03/29 06:19:47;;;;;;;20.90;14.83;;;;;;;6.71;68.54;101703.83;114152;1196;103056;-79
2021/03/29 06:22:17;;;;;;;19.48;14.98;;;;;;;6.77;68.22;101713.58;114068;1196;103244;-80
2021/03/29 06:25:06;;;;;;;20.33;16.67;;;;;;;6.84;68.34;101713.67;113995;1196;103251;-79
2021/03/29 06:27:38;;;;;;;26.03;19.55;;;;;;;6.85;68.55;101707.52;113897;1196;103098;-83
2021/03/29 06:30:28;;;;;;;29.13;18.20;;;;;;;6.81;68.82;101710.09;113999;1196;103181;-80
2021/03/29 06:33:13;;;;;;;17.73;15.25;;;;;;;6.83;69.16;101709.23;113728;1196;103309;-78
2021/03/29 06:35:47;;;;;;;23.93;17.10;;;;;;;6.85;69.08;101714.55;113828;1196;103837;-78
2021/03/29 06:38:33;;;;;;;25.25;17.85;;;;;;;6.92;68.94;101715.49;113899;1196;103232;-79
2021/03/29 06:41:04;;;;;;;28.80;20.45;;;;;;;6.95;69.15;101715.55;113948;1196;103178;-80
2021/03/29 06:43:36;;;;;;;19.50;17.35;;;;;;;6.99;69.37;101725.30;113976;1195;103034;-80
2021/03/29 06:46:08;;;;;;;24.18;18.73;;;;;;;7.03;69.34;101727.98;113970;1196;103276;-82
2021/03/29 06:48:38;;;;;;;20.40;14.00;;;;;;;7.06;69.03;101726.24;114596;1196;103345;-80
2021/03/29 06:51:11;;;;;;;24.77;17.13;;;;;;;7.05;69.42;101735.05;115292;1196;103056;-84
2021/03/29 06:53:46;;;;;;;21.38;14.08;;;;;;;7.08;69.61;101729.78;115372;1195;103023;-80
2021/03/29 06:56:30;;;;;;;16.77;13.57;;;;;;;7.15;69.70;101732.51;115522;1195;103035;-82
2021/03/29 06:59:04;;;;;;;20.68;15.93;;;;;;;7.19;69.47;101734.30;115685;1195;103955;-80
2021/03/29 07:01:38;;;;;;;18.23;15.03;;;;;;;7.21;69.64;101737.00;115240;1195;103072;-78
2021/03/29 07:04:08;;;;;;;18.63;13.85;;;;;;;7.22;69.81;101737.88;114442;1196;103188;-83
2021/03/29 07:06:35;;;;;;;22.70;16.30;;;;;;;7.25;69.95;101735.23;113897;1196;103054;-78
2021/03/29 07:09:06;;;;;;;22.07;16.13;;;;;;;7.33;70.16;101739.75;113892;1196;103565;-79
2021/03/29 07:11:39;;;;;;;20.40;17.88;;;;;;;7.35;70.52;101732.68;113881;1196;103085;-81
2021/03/29 07:14:07;;;;;;;18.63;14.80;;;;;;;7.40;70.46;101737.13;114151;1196;103174;-80
2021/03/29 07:16:35;;;;;;;21.40;12.63;;;;;;;7.41;70.94;101731.88;114196;1195;103319;-86
2021/03/29 07:19:05;;;;;;;17.38;14.08;;;;;;;7.45;71.20;101740.71;114012;1196;105337;-79
2021/03/29 07:21:33;;;;;;;14.07;12.40;;;;;;;7.48;71.50;101744.28;114146;1196;103303;-80
2021/03/29 07:24:07;;;;;;;14.93;12.27;;;;;;;7.53;72.06;101723.09;114384;1196;104052;-80
2021/03/29 07:26:43;;;;;;;18.33;13.38;;;;;;;7.60;71.55;101719.63;114313;1196;103142;-80
2021/03/29 07:29:28;;;;;;;15.13;10.50;;;;;;;7.73;71.45;101731.23;114264;1195;103026;-79
2021/03/29 07:31:56;;;;;;;14.95;11.60;;;;;;;7.85;71.53;101727.73;114044;1196;103506;-85
2021/03/29 07:34:42;;;;;;;14.15;10.05;;;;;;;7.86;71.75;101727.78;114315;1196;103044;-83
2021/03/29 07:37:31;;;;;;;17.18;9.55;;;;;;;7.93;71.76;101728.70;113919;1196;103132;-79
2021/03/29 07:40:03;;;;;;;12.95;9.33;;;;;;;8.06;71.93;101729.64;113543;1199;103466;-79
2021/03/29 07:42:29;;;;;;;18.85;9.70;;;;;;;8.12;71.15;101719.06;113779;1199;103200;-79
2021/03/29 07:45:15;;;;;;;19.13;10.77;;;;;;;8.25;71.18;101721.77;113807;1196;103309;-80
2021/03/29 07:47:41;;;;;;;13.08;8.38;;;;;;;8.25;70.25;101724.42;113931;1196;103207;-82
2021/03/29 07:50:25;;;;;;;15.90;9.65;;;;;;;8.34;70.90;101721.81;113843;1196;104147;-83
2021/03/29 07:52:54;;;;;;;10.73;7.65;;;;;;;8.39;70.66;101724.50;113907;1196;103196;-79
2021/03/29 07:55:37;;;;;;;10.33;8.43;;;;;;;8.47;70.18;101733.41;114261;1195;103108;-81
2021/03/29 07:58:09;;;;;;;11.45;7.50;;;;;;;8.47;69.93;101741.38;114033;1195;103133;-81
2021/03/29 08:00:38;;;;;;;13.80;9.28;;;;;;;8.43;70.07;101727.16;114589;1196;103185;-85
2021/03/29 08:03:11;;;;;;;11.10;7.00;;;;;;;8.58;70.24;101728.14;114240;1196;103187;-81
2021/03/29 08:05:44;;;;;;;13.60;8.63;;;;;;;8.62;70.11;101724.61;113892;1196;103840;-80
2021/03/29 08:08:28;;;;;;;10.37;8.80;;;;;;;8.81;69.92;101721.13;113887;1196;103289;-79
2021/03/29 08:11:20;;;;;;;13.03;10.43;;;;;;;8.94;68.97;101722.02;114205;1196;103481;-88
2021/03/29 08:13:48;;;;;;;10.70;7.40;;;;;;;8.98;67.61;101718.52;114057;1195;103254;-80
2021/03/29 08:16:29;;;;;;;12.70;10.13;;;;;;;8.98;68.01;101723.83;114051;1196;103200;-84
2021/03/29 08:19:20;;;;;;;13.00;7.30;;;;;;;9.07;68.04;101722.94;113952;1195;103184;-82
2021/03/29 08:22:06;;;;;;;9.47;6.73;;;;;;;9.10;68.08;101714.95;113908;1196;103110;-81
2021/03/29 08:24:37;;;;;;;8.05;6.25;;;;;;;9.23;67.76;101714.98;113902;1196;103244;-80
2021/03/29 08:27:17;;;;;;;9.33;7.53;;;;;;;9.39;68.22;101716.75;113999;1196;103107;-79
2021/03/29 08:29:48;;;;;;;10.08;7.93;;;;;;;9.60;67.43;101713.20;113975;1196;103245;-79
2021/03/29 08:32:19;;;;;;;8.37;7.50;;;;;;;9.79;67.53;101713.17;114105;1196;103185;-88
2021/03/29 08:35:04;;;;;;;12.33;7.70;;;;;;;10.03;66.74;101707.77;113906;1196;103187;-82
2021/03/29 08:37:46;;;;;;;7.70;7.00;;;;;;;10.13;66.56;101700.66;113914;1196;103292;-80
2021/03/29 08:40:23;;;;;;;13.70;8.50;;;;;;;10.24;65.98;101705.08;113892;1196;103264;-80
2021/03/29 08:43:14;;;;;;;9.58;7.65;;;;;;;10.30;66.26;101708.59;113776;1196;103293;-81
2021/03/29 08:45:42;;;;;;;10.43;8.27;;;;;;;10.40;65.86;101708.59;113816;1196;103254;-81
2021/03/29 08:48:09;;;;;;;11.13;6.78;;;;;;;10.53;65.53;101707.64;113886;1196;103123;-81
2021/03/29 08:50:40;;;;;;;9.67;7.17;;;;;;;10.66;65.77;101704.02;113920;1196;103174;-80
2021/03/29 08:53:09;;;;;;;6.55;5.88;;;;;;;10.77;64.10;101708.37;113926;1195;103146;-85
2021/03/29 08:55:41;;;;;;;11.30;8.47;;;;;;;10.81;64.33;101702.13;113988;1196;103083;-82
2021/03/29 08:58:09;;;;;;;8.90;7.65;;;;;;;10.91;64.82;101701.17;114136;1196;103130;-81
2021/03/29 09:00:42;;;;;;;11.77;7.73;;;;;;;11.00;63.56;101701.11;113882;1196;103116;-85
2021/03/29 09:03:20;;;;;;;10.23;7.53;;;;;;;11.06;64.06;101700.17;113997;1196;103255;-81
2021/03/29 09:05:47;;;;;;;14.08;10.85;;;;;;;11.20;64.54;101703.63;113886;1196;103178;-84
2021/03/29 09:08:16;;;;;;;10.57;7.23;;;;;;;11.43;63.85;101705.22;113783;1196;103196;-82
2021/03/29 09:10:46;;;;;;;8.87;7.07;;;;;;;11.47;63.03;101708.75;113944;1196;103097;-82
2021/03/29 09:13:15;;;;;;;16.80;9.20;;;;;;;11.52;63.06;101707.80;113965;1195;103095;-81
2021/03/29 09:15:44;;;;;;;9.90;8.07;;;;;;;11.59;62.39;101715.77;113883;1196;103722;-84
2021/03/29 09:18:19;;;;;;;10.93;8.15;;;;;;;11.58;62.09;101713.98;114109;1196;104384;-86
2021/03/29 09:21:00;;;;;;;12.97;8.23;;;;;;;11.60;62.71;101714.87;114095;1199;103114;-81
2021/03/29 09:23:32;;;;;;;13.13;8.20;;;;;;;11.67;62.19;101714.77;113832;1198;104143;-81
2021/03/29 09:26:02;;;;;;;18.20;8.67;;;;;;;11.80;62.85;101715.55;113796;1196;103280;-80
2021/03/29 09:31:18;;;;;;;11.40;8.00;;;;;;;11.96;61.98;101729.65;113871;1196;103214;-90
2021/03/29 09:33:46;;;;;;;7.63;6.28;;;;;;;11.84;61.31;101732.42;113931;1196;103210;-84
2021/03/29 09:36:18;;;;;;;10.35;7.28;;;;;;;11.66;61.29;101718.36;114057;1196;103242;-82
2021/03/29 09:38:56;;;;;;;13.23;7.45;;;;;;;11.56;62.40;101723.80;113894;1196;103328;-80
2021/03/29 09:41:29;;;;;;;12.70;7.85;;;;;;;11.57;63.38;101723.78;113776;1196;103453;-80
2021/03/29 09:43:57;;;;;;;12.17;8.50;;;;;;;11.63;62.57;101723.70;113863;1196;103187;-81
2021/03/29 09:46:27;;;;;;;10.85;6.95;;;;;;;11.58;62.87;101730.87;113819;1196;103184;-78
2021/03/29 09:49:28;;;;;;;13.17;8.47;;;;;;;11.56;62.33;101729.14;113850;1196;103743;-80
2021/03/29 09:52:05;;;;;;;13.40;8.50;;;;;;;11.45;62.01;101730.11;113664;1196;103278;-80
2021/03/29 09:54:35;;;;;;;13.10;7.85;;;;;;;11.42;62.03;101730.11;113781;1196;103196;-79
2021/03/29 09:57:19;;;;;;;11.60;7.47;;;;;;;11.44;62.76;101728.34;113968;1195;103232;-80
2021/03/29 09:59:47;;;;;;;12.55;8.23;;;;;;;11.44;62.95;101728.34;114083;1196;103038;-81
2021/03/29 10:02:21;;;;;;;9.90;6.80;;;;;;;11.47;62.86;101730.09;113804;1196;103152;-80
2021/03/29 10:04:59;;;;;;;12.20;9.63;;;;;;;11.50;64.19;101714.95;114026;1196;103105;-80
2021/03/29 10:07:26;;;;;;;10.40;7.23;;;;;;;11.48;63.37;101722.07;113939;1196;103780;-82
2021/03/29 10:10:01;;;;;;;8.83;6.83;;;;;;;11.42;63.44;101715.91;114031;1196;103130;-84
2021/03/29 10:12:29;;;;;;;12.35;6.93;;;;;;;11.43;64.14;101718.55;113975;1196;103126;-86
2021/03/29 10:15:09;;;;;;;11.70;8.23;;;;;;;11.42;63.92;101714.11;113957;1196;103261;-82
2021/03/29 10:17:36;;;;;;;10.20;7.40;;;;;;;11.45;64.37;101722.11;113912;1196;103207;-80
2021/03/29 10:20:05;;;;;;;12.53;8.37;;;;;;;11.36;63.28;101720.39;113916;1196;103261;-80
2021/03/29 10:22:32;;;;;;;8.98;7.45;;;;;;;11.28;63.13;101724.91;114019;1196;103302;-84
2021/03/29 10:25:29;;;;;;;12.97;6.93;;;;;;;11.27;63.10;101717.80;113889;1196;103136;-80
2021/03/29 10:28:17;;;;;;;12.13;7.80;;;;;;;11.37;63.77;101718.63;114277;1196;103079;-81
2021/03/29 10:30:44;;;;;;;15.40;9.78;;;;;;;11.42;63.63;101715.91;114204;1195;103286;-80
2021/03/29 10:33:11;;;;;;;17.03;10.75;;;;;;;11.38;63.01;101720.38;113946;1196;103248;-84
2021/03/29 10:35:39;;;;;;;15.05;10.55;;;;;;;11.41;63.33;101715.03;113880;1196;103131;-82
2021/03/29 10:38:06;;;;;;;17.48;11.70;;;;;;;11.43;62.68;101718.55;114110;1196;103123;-80
2021/03/29 10:40:33;;;;;;;21.30;12.03;;;;;;;11.49;63.41;101718.51;114214;1196;103940;-81
2021/03/29 10:43:00;;;;;;;15.63;8.77;;;;;;;11.49;62.88;101722.94;113962;1196;103092;-85
2021/03/29 10:45:26;;;;;;;12.38;8.15;;;;;;;11.38;62.52;101726.61;114130;1196;103140;-79
2021/03/29 10:47:53;;;;;;;16.43;11.03;;;;;;;11.38;63.69;101725.70;114032;1196;103085;-81
2021/03/29 10:50:23;;;;;;;17.95;10.50;;;;;;;11.45;63.18;101714.10;114196;1196;103207;-79
2021/03/29 10:52:50;;;;;;;14.90;12.00;;;;;;;11.47;63.61;101724.75;114063;1196;103226;-81
2021/03/29 10:55:17;;;;;;;13.93;10.67;;;;;;;11.58;63.93;101721.98;114043;1195;103207;-85
2021/03/29 10:57:44;;;;;;;13.90;10.93;;;;;;;11.65;64.50;101724.59;113871;1196;103101;-79
2021/03/29 11:00:11;;;;;;;18.70;11.43;;;;;;;11.57;61.79;101714.88;113899;1196;103275;-81
2021/03/29 11:02:37;;;;;;;14.17;11.90;;;;;;;11.52;62.47;101725.61;113833;1196;103105;-80
2021/03/29 11:05:06;;;;;;;17.40;10.80;;;;;;;11.53;63.60;101722.05;113921;1196;103168;-80
2021/03/29 11:07:32;;;;;;;15.78;11.23;;;;;;;11.57;62.79;101720.21;113855;1196;103898;-79
2021/03/29 11:09:59;;;;;;;16.73;11.70;;;;;;;11.50;62.22;101714.95;113881;1196;103079;-79
2021/03/29 11:12:26;;;;;;;14.05;11.78;;;;;;;11.56;63.03;101715.80;113946;1196;103126;-79
2021/03/29 11:14:56;;;;;;;23.63;11.93;;;;;;;11.54;62.83;101711.36;113961;1196;103098;-80
2021/03/29 11:17:26;;;;;;;16.70;12.37;;;;;;;11.50;63.32;101717.62;113763;1196;103124;-78
2021/03/29 11:19:53;;;;;;;17.55;13.00;;;;;;;11.49;63.16;101707.84;113733;1196;103123;-80
2021/03/29 11:22:20;;;;;;;15.83;12.68;;;;;;;11.54;63.04;101703.35;113865;1195;103841;-82
2021/03/29 11:24:47;;;;;;;18.90;12.13;;;;;;;11.54;63.29;101711.36;113735;1196;103146;-80
2021/03/29 11:27:13;;;;;;;17.80;12.53;;;;;;;11.55;63.49;101698.88;113678;1196;103210;-79